Time;durP1;ratioP1;P1;durP2;ratioP2;P2;SDS_P1;SDS_P2;PMS_P1;PMS_P2;Temp;Humidity;BMP_temperature;BMP_pressure;BME280_temperature;BME280_humidity;BME280_pressure;Samples;Min_cycle;Max_cycle;Signal;HPM_P1;HPM_P2
2023/06/06 00:01:32;;;;;;;2.80;1.90;;;15.90;16.20;;;;;;5012486;28;20445;-69
2023/06/06 00:03:58;;;;;;;3.00;2.30;;;15.80;16.40;;;;;;5012448;28;20707;-69
2023/06/06 00:06:25;;;;;;;2.70;1.53;;;15.80;16.80;;;;;;5012492;28;20182;-70
2023/06/06 00:08:52;;;;;;;6.00;2.53;;;15.70;16.40;;;;;;5012724;28;20173;-70
2023/06/06 00:11:18;;;;;;;2.60;2.13;;;15.70;16.60;;;;;;5012174;28;20790;-70
2023/06/06 00:13:48;;;;;;;2.60;1.97;;;15.60;16.50;;;;;;5012331;28;20517;-70
2023/06/06 00:16:14;;;;;;;4.03;2.33;;;15.60;16.90;;;;;;5013337;28;20427;-70
2023/06/06 00:18:40;;;;;;;2.40;1.90;;;15.50;17.80;;;;;;5010924;28;20459;-70
2023/06/06 00:21:06;;;;;;;3.33;2.17;;;15.40;17.80;;;;;;5011849;28;20168;-70
2023/06/06 00:23:31;;;;;;;4.13;2.23;;;15.40;17.70;;;;;;5011635;28;20452;-70
2023/06/06 00:25:57;;;;;;;2.97;1.90;;;15.40;17.30;;;;;;5012547;28;20323;-70
2023/06/06 00:28:23;;;;;;;2.77;2.00;;;15.30;17.70;;;;;;5012554;28;20414;-70
2023/06/06 00:30:48;;;;;;;4.07;1.93;;;15.30;17.70;;;;;;5012295;28;20182;-70
2023/06/06 00:33:14;;;;;;;3.53;2.50;;;15.20;17.60;;;;;;5011555;28;20206;-70
2023/06/06 00:35:40;;;;;;;4.13;2.70;;;15.20;18.20;;;;;;5011464;28;20198;-70
2023/06/06 00:38:05;;;;;;;3.60;2.80;;;15.20;17.90;;;;;;5011772;28;20268;-70
2023/06/06 00:40:31;;;;;;;2.37;2.00;;;15.20;18.60;;;;;;5011841;28;20191;-70
2023/06/06 00:42:56;;;;;;;3.00;2.70;;;15.10;18.20;;;;;;5010998;28;20606;-70
2023/06/06 00:45:22;;;;;;;3.17;2.03;;;15.00;18.50;;;;;;5011780;28;20191;-70
2023/06/06 00:47:48;;;;;;;2.20;1.83;;;14.90;18.30;;;;;;5011403;28;20635;-70
2023/06/06 00:50:14;;;;;;;2.70;2.43;;;14.90;19.00;;;;;;5012799;28;20420;-70
2023/06/06 00:52:45;;;;;;;4.07;2.60;;;14.90;18.70;;;;;;5011083;28;20738;-70
2023/06/06 00:55:11;;;;;;;3.60;2.13;;;14.80;18.30;;;;;;5012393;28;20420;-70
2023/06/06 00:57:37;;;;;;;2.33;1.70;;;14.80;18.20;;;;;;5011262;28;20411;-70
2023/06/06 01:00:08;;;;;;;2.70;2.13;;;14.70;18.30;;;;;;5011694;28;20419;-70
2023/06/06 01:02:37;;;;;;;3.03;2.23;;;14.70;17.30;;;;;;5011718;28;20233;-70
2023/06/06 01:05:09;;;;;;;3.07;2.27;;;14.70;17.30;;;;;;5011242;28;20425;-70
2023/06/06 01:07:36;;;;;;;4.20;2.20;;;14.70;17.00;;;;;;5012023;28;20409;-70
2023/06/06 01:10:09;;;;;;;3.30;2.27;;;14.70;16.70;;;;;;5011581;28;20843;-70
2023/06/06 01:12:44;;;;;;;3.40;2.87;;;14.80;16.40;;;;;;5012348;28;20812;-70
2023/06/06 01:15:22;;;;;;;3.40;1.90;;;14.80;16.30;;;;;;5011896;28;20711;-68
2023/06/06 01:17:49;;;;;;;2.93;1.60;;;14.80;16.40;;;;;;5011392;28;20457;-69
2023/06/06 01:20:15;;;;;;;3.03;1.90;;;14.70;16.70;;;;;;5011945;28;20413;-68
2023/06/06 01:22:43;;;;;;;3.20;1.90;;;14.60;16.90;;;;;;5010716;28;20840;-68
2023/06/06 01:25:09;;;;;;;2.80;2.27;;;14.70;17.30;;;;;;5011894;28;20476;-71
2023/06/06 01:27:35;;;;;;;2.27;1.80;;;14.70;17.30;;;;;;5011754;28;20923;-70
2023/06/06 01:30:02;;;;;;;2.33;1.93;;;14.50;17.20;;;;;;5011643;28;20418;-71
2023/06/06 01:32:40;;;;;;;2.67;1.93;;;14.50;17.70;;;;;;5010557;28;20222;-73
2023/06/06 01:35:14;;;;;;;3.17;2.23;;;14.40;18.00;;;;;;5011203;28;20416;-72
2023/06/06 01:37:55;;;;;;;3.20;1.97;;;14.40;18.20;;;;;;5011117;28;20450;-73
2023/06/06 01:40:24;;;;;;;3.10;2.20;;;14.30;18.10;;;;;;5012431;28;20403;-73
2023/06/06 01:42:51;;;;;;;3.07;1.87;;;14.30;18.10;;;;;;5010714;28;20525;-72
2023/06/06 01:45:21;;;;;;;4.40;3.10;;;14.20;18.60;;;;;;5011110;28;20621;-72
2023/06/06 01:47:47;;;;;;;2.77;2.10;;;14.20;18.80;;;;;;5011284;28;20425;-72
2023/06/06 01:50:13;;;;;;;3.37;2.63;;;14.20;18.90;;;;;;5011357;28;20423;-72
2023/06/06 01:52:39;;;;;;;3.40;2.17;;;14.10;19.30;;;;;;5010417;28;20483;-72
2023/06/06 01:55:05;;;;;;;3.07;2.20;;;14.10;19.40;;;;;;5011559;28;20418;-72
2023/06/06 01:57:31;;;;;;;2.60;1.70;;;14.00;19.80;;;;;;5010827;28;20361;-72
2023/06/06 01:59:58;;;;;;;3.00;2.70;;;13.90;20.00;;;;;;5012607;28;20427;-72
2023/06/06 02:02:24;;;;;;;2.50;1.87;;;13.90;20.60;;;;;;5010472;28;20450;-72
2023/06/06 02:04:50;;;;;;;3.17;2.50;;;13.80;20.70;;;;;;5012134;28;20422;-72
2023/06/06 02:07:16;;;;;;;2.87;2.10;;;13.80;21.00;;;;;;5010266;28;20462;-72
2023/06/06 02:09:42;;;;;;;3.50;2.30;;;13.80;21.00;;;;;;5010656;28;20469;-72
2023/06/06 02:12:08;;;;;;;3.00;2.23;;;13.70;20.90;;;;;;5008749;28;20815;-72
2023/06/06 02:14:34;;;;;;;4.00;2.20;;;13.60;21.30;;;;;;5009697;28;20426;-73
2023/06/06 02:17:00;;;;;;;3.40;2.00;;;13.60;22.00;;;;;;5013298;28;20893;-72
2023/06/06 02:19:26;;;;;;;3.67;2.50;;;13.60;21.70;;;;;;5015414;28;20660;-72
2023/06/06 02:21:52;;;;;;;2.03;1.70;;;13.60;22.00;;;;;;5013467;28;20585;-73
2023/06/06 02:24:17;;;;;;;2.97;2.00;;;13.50;22.10;;;;;;5014554;28;20905;-72
2023/06/06 02:26:44;;;;;;;3.57;2.43;;;13.40;22.40;;;;;;5015053;28;20216;-72
2023/06/06 02:29:10;;;;;;;2.93;1.83;;;13.40;23.00;;;;;;5014419;28;20655;-72
2023/06/06 02:31:39;;;;;;;3.17;2.80;;;13.30;23.20;;;;;;5012892;28;20458;-72
2023/06/06 02:34:05;;;;;;;4.00;2.20;;;13.30;23.30;;;;;;5014542;28;20506;-72
2023/06/06 02:36:31;;;;;;;2.73;1.87;;;13.30;23.50;;;;;;5013406;28;20474;-72
2023/06/06 02:38:57;;;;;;;3.63;2.60;;;13.30;23.70;;;;;;5014414;28;20477;-72
2023/06/06 02:41:23;;;;;;;3.50;2.50;;;13.20;23.70;;;;;;5013606;28;20908;-72
2023/06/06 02:43:49;;;;;;;2.77;2.20;;;13.10;24.00;;;;;;5014051;28;20264;-72
2023/06/06 02:46:15;;;;;;;3.67;2.63;;;13.10;24.20;;;;;;5013744;28;20952;-72
2023/06/06 02:48:45;;;;;;;4.07;2.80;;;13.00;24.60;;;;;;5014511;28;20826;-72
2023/06/06 02:51:11;;;;;;;4.17;2.20;;;12.90;24.60;;;;;;5013548;28;20831;-73
2023/06/06 02:53:40;;;;;;;4.27;2.40;;;12.90;24.60;;;;;;5013693;28;20978;-72
2023/06/06 02:56:07;;;;;;;3.47;2.57;;;12.90;24.60;;;;;;5013399;28;20520;-72
2023/06/06 02:58:33;;;;;;;2.53;1.90;;;12.80;25.70;;;;;;5014030;28;20465;-72
2023/06/06 03:01:03;;;;;;;3.70;2.67;;;12.80;25.30;;;;;;5014146;28;20427;-72
2023/06/06 03:03:29;;;;;;;3.13;2.10;;;12.80;26.50;;;;;;5013728;28;20486;-73
2023/06/06 03:05:56;;;;;;;4.87;3.17;;;12.70;27.10;;;;;;5013750;28;20480;-72
2023/06/06 03:08:23;;;;;;;6.57;3.10;;;12.70;27.50;;;;;;5014358;28;20418;-72
2023/06/06 03:10:50;;;;;;;3.27;2.80;;;12.70;27.70;;;;;;5012923;28;20451;-72
2023/06/06 03:13:16;;;;;;;4.63;2.47;;;12.60;28.20;;;;;;5013636;28;20939;-72
2023/06/06 03:15:44;;;;;;;3.17;2.20;;;12.60;28.60;;;;;;5013051;28;20418;-72
2023/06/06 03:18:11;;;;;;;3.73;2.70;;;12.60;28.70;;;;;;5013301;28;20596;-72
2023/06/06 03:20:39;;;;;;;3.83;2.93;;;12.50;29.50;;;;;;5012814;28;20857;-72
2023/06/06 03:23:06;;;;;;;3.53;2.53;;;12.50;29.90;;;;;;5013044;28;20518;-72
2023/06/06 03:25:33;;;;;;;4.00;2.60;;;12.50;30.20;;;;;;5013209;28;20411;-72
2023/06/06 03:28:00;;;;;;;3.33;2.30;;;12.50;30.40;;;;;;5012016;28;20936;-72
2023/06/06 03:30:25;;;;;;;3.20;2.20;;;12.40;30.30;;;;;;5012674;28;20946;-73
2023/06/06 03:32:51;;;;;;;4.60;3.17;;;12.40;30.10;;;;;;5012801;28;20454;-73
2023/06/06 03:35:18;;;;;;;3.60;3.07;;;12.40;30.00;;;;;;5012934;28;20590;-73
2023/06/06 03:37:43;;;;;;;5.40;3.33;;;12.40;29.70;;;;;;5012453;28;20488;-73
2023/06/06 03:40:10;;;;;;;3.87;3.07;;;12.40;29.90;;;;;;5012267;28;20414;-73
2023/06/06 03:42:35;;;;;;;4.10;3.53;;;12.40;29.90;;;;;;5012723;28;20192;-72
2023/06/06 03:45:01;;;;;;;14.23;2.80;;;12.40;29.60;;;;;;5012347;28;20494;-72
2023/06/06 03:47:26;;;;;;;3.63;2.93;;;12.30;29.10;;;;;;5012516;28;20203;-73
2023/06/06 03:49:52;;;;;;;3.93;2.70;;;12.30;28.70;;;;;;5012515;28;20180;-73
2023/06/06 03:52:17;;;;;;;4.00;3.40;;;12.40;28.80;;;;;;5012257;28;20212;-73
2023/06/06 03:54:43;;;;;;;7.53;3.00;;;12.40;28.40;;;;;;5013388;28;20549;-73
2023/06/06 03:57:08;;;;;;;4.07;2.80;;;12.40;28.40;;;;;;5012221;28;20176;-73
2023/06/06 03:59:34;;;;;;;6.13;3.00;;;12.40;28.40;;;;;;5012274;28;20235;-73
2023/06/06 04:01:59;;;;;;;3.90;2.60;;;12.50;28.00;;;;;;5011571;28;20265;-73
2023/06/06 04:04:26;;;;;;;3.97;2.40;;;12.50;28.40;;;;;;5012436;28;20277;-73
2023/06/06 04:06:52;;;;;;;12.23;3.50;;;12.50;27.90;;;;;;5013330;28;20172;-73
2023/06/06 04:09:18;;;;;;;4.43;3.43;;;12.50;28.00;;;;;;5013276;28;20791;-73
2023/06/06 04:11:43;;;;;;;3.97;2.80;;;12.50;27.70;;;;;;5012635;28;20204;-72
2023/06/06 04:14:11;;;;;;;4.67;2.90;;;12.60;27.40;;;;;;5013375;28;20195;-74
2023/06/06 04:16:37;;;;;;;4.30;2.63;;;12.60;27.10;;;;;;5013412;28;20198;-73
2023/06/06 04:19:03;;;;;;;4.77;3.30;;;12.60;27.20;;;;;;5012715;28;20458;-73
2023/06/06 04:21:30;;;;;;;4.23;2.37;;;12.70;26.50;;;;;;5011985;28;20321;-72
2023/06/06 04:23:56;;;;;;;4.80;3.23;;;12.70;26.40;;;;;;5010698;28;20183;-73
2023/06/06 04:26:26;;;;;;;4.60;3.33;;;12.80;26.30;;;;;;5013184;28;20513;-73
2023/06/06 04:28:53;;;;;;;5.50;3.73;;;12.80;25.80;;;;;;5012201;28;20423;-72
2023/06/06 04:31:23;;;;;;;3.27;2.63;;;12.90;24.60;;;;;;5013332;28;20791;-73
2023/06/06 04:33:53;;;;;;;4.00;2.67;;;13.00;24.60;;;;;;5037450;23;20501;-69
2023/06/06 04:36:19;;;;;;;7.83;3.03;;;13.10;24.20;;;;;;5011981;28;20506;-69
2023/06/06 04:38:49;;;;;;;4.47;3.03;;;13.10;23.90;;;;;;5013232;28;20456;-69
2023/06/06 04:41:22;;;;;;;6.00;3.10;;;13.20;23.70;;;;;;5014680;28;20423;-68
2023/06/06 04:43:49;;;;;;;6.87;3.87;;;13.30;23.30;;;;;;5014190;28;20857;-68
2023/06/06 04:46:23;;;;;;;4.47;3.50;;;13.40;22.90;;;;;;5016024;28;20403;-68
2023/06/06 04:48:56;;;;;;;4.10;2.63;;;13.50;22.60;;;;;;5016409;28;20441;-70
2023/06/06 04:51:29;;;;;;;4.93;3.00;;;13.60;22.20;;;;;;5011673;28;20481;-69
2023/06/06 04:54:02;;;;;;;3.20;2.30;;;13.70;21.80;;;;;;5008821;28;20447;-69
2023/06/06 04:56:28;;;;;;;5.03;3.53;;;13.80;21.50;;;;;;5010731;28;20463;-69
2023/06/06 04:58:55;;;;;;;4.40;3.60;;;13.90;21.00;;;;;;5013466;28;20455;-70
2023/06/06 05:01:21;;;;;;;5.20;2.70;;;13.90;21.10;;;;;;5013931;28;20433;-69
2023/06/06 05:03:47;;;;;;;4.97;3.13;;;14.00;20.90;;;;;;5013308;28;20459;-68
2023/06/06 05:06:12;;;;;;;4.57;3.17;;;14.10;20.60;;;;;;5013058;28;20440;-67
2023/06/06 05:08:44;;;;;;;4.30;3.33;;;14.20;20.20;;;;;;5011368;28;20423;-68
2023/06/06 05:11:10;;;;;;;3.53;2.60;;;14.30;20.10;;;;;;5012652;28;20650;-67
2023/06/06 05:13:36;;;;;;;7.70;3.47;;;14.40;19.50;;;;;;5012661;28;20441;-67
2023/06/06 05:16:01;;;;;;;5.63;3.07;;;14.50;19.10;;;;;;5012579;28;20419;-67
2023/06/06 05:18:30;;;;;;;4.33;3.27;;;14.60;18.20;;;;;;5012588;28;20199;-67
2023/06/06 05:21:00;;;;;;;6.83;3.27;;;14.70;18.10;;;;;;5012388;28;20187;-67
2023/06/06 05:23:26;;;;;;;4.33;3.40;;;14.90;17.40;;;;;;5012155;28;20441;-67
2023/06/06 05:25:52;;;;;;;4.90;3.57;;;15.10;17.40;;;;;;5012864;28;20436;-67
2023/06/06 05:28:17;;;;;;;4.53;3.70;;;15.30;16.10;;;;;;5013915;28;20409;-69
2023/06/06 05:30:43;;;;;;;3.77;3.20;;;15.40;16.00;;;;;;5012245;28;20182;-68
2023/06/06 05:33:09;;;;;;;7.30;3.27;;;15.70;15.40;;;;;;5012191;28;20214;-68
2023/06/06 05:35:35;;;;;;;5.00;3.27;;;15.90;14.40;;;;;;5012825;28;20187;-68
2023/06/06 05:38:01;;;;;;;5.17;3.90;;;16.20;13.90;;;;;;5012465;28;20487;-68
2023/06/06 05:40:26;;;;;;;3.80;3.40;;;16.50;13.20;;;;;;5013064;28;20198;-69
2023/06/06 05:42:52;;;;;;;4.50;3.77;;;16.80;12.70;;;;;;5012338;28;20692;-69
2023/06/06 05:45:17;;;;;;;4.90;3.17;;;17.20;11.40;;;;;;5013773;28;20178;-68
2023/06/06 05:47:43;;;;;;;4.33;3.80;;;17.40;10.50;;;;;;5014195;28;20267;-69
2023/06/06 05:50:09;;;;;;;4.30;2.93;;;17.70;9.90;;;;;;5013311;28;20271;-69
2023/06/06 05:52:35;;;;;;;4.53;3.83;;;18.10;9.00;;;;;;5016224;28;20196;-70
2023/06/06 05:55:05;;;;;;;4.13;3.67;;;18.40;7.80;;;;;;5015860;28;20588;-69
2023/06/06 05:57:30;;;;;;;5.00;3.80;;;18.70;7.30;;;;;;5016217;28;20828;-69
2023/06/06 06:00:00;;;;;;;5.37;3.37;;;19.00;6.90;;;;;;5016253;28;20473;-68
2023/06/06 06:02:28;;;;;;;3.93;3.43;;;19.70;6.60;;;;;;5015348;28;20219;-69
2023/06/06 06:04:56;;;;;;;5.10;4.10;;;20.20;4.20;;;;;;5015985;28;20505;-70
2023/06/06 06:07:22;;;;;;;5.53;5.03;;;21.60;2.90;;;;;;5015492;28;20447;-70
2023/06/06 06:09:48;;;;;;;9.57;5.07;;;22.20;1.00;;;;;;5015702;28;20419;-69
2023/06/06 06:12:14;;;;;;;5.90;4.20;;;22.60;1.00;;;;;;5015276;28;20461;-67
2023/06/06 06:14:40;;;;;;;6.33;4.70;;;24.10;1.00;;;;;;5015882;28;20230;-67
2023/06/06 06:17:05;;;;;;;5.60;4.60;;;25.40;1.00;;;;;;5016691;28;20931;-69
2023/06/06 06:19:31;;;;;;;5.60;5.10;;;25.40;1.00;;;;;;5016010;28;20215;-71
2023/06/06 06:21:56;;;;;;;5.23;4.73;;;26.90;1.00;;;;;;5016286;28;20235;-69
2023/06/06 06:24:22;;;;;;;5.80;5.40;;;28.40;1.00;;;;;;5017395;28;20546;-68
2023/06/06 06:26:50;;;;;;;10.80;7.30;;;28.50;1.00;;;;;;5016681;28;20176;-67
2023/06/06 06:29:16;;;;;;;6.27;5.77;;;29.50;1.00;;;;;;5017105;28;20176;-67
2023/06/06 06:31:41;;;;;;;5.97;5.43;;;31.30;1.00;;;;;;5016521;28;20818;-68
2023/06/06 06:34:07;;;;;;;7.40;6.80;;;31.00;1.00;;;;;;5014890;28;20285;-68
2023/06/06 06:36:32;;;;;;;6.60;6.00;;;32.10;1.00;;;;;;5016050;28;20598;-68
2023/06/06 06:38:58;;;;;;;5.93;5.43;;;32.10;1.00;;;;;;5015720;28;20723;-68
2023/06/06 06:41:23;;;;;;;6.53;5.20;;;32.70;1.00;;;;;;5015604;28;20656;-68
2023/06/06 06:43:50;;;;;;;7.87;6.10;;;33.00;1.00;;;;;;5015576;28;20295;-68
2023/06/06 06:46:16;;;;;;;5.97;5.47;;;33.80;1.00;;;;;;5015936;28;20595;-68
2023/06/06 06:48:45;;;;;;;6.43;5.93;;;33.50;1.00;;;;;;5015562;28;20431;-68
2023/06/06 06:51:13;;;;;;;5.57;5.17;;;31.50;1.00;;;;;;5015374;28;20660;-68
2023/06/06 06:53:39;;;;;;;6.67;6.07;;;31.20;1.00;;;;;;5014991;28;20533;-69
2023/06/06 06:56:05;;;;;;;6.50;5.90;;;31.30;1.00;;;;;;5015009;28;20407;-70
2023/06/06 06:58:33;;;;;;;5.90;5.50;;;32.30;1.00;;;;;;5015741;28;20592;-68
2023/06/06 07:01:01;;;;;;;5.73;5.23;;;32.40;1.00;;;;;;5016869;28;20502;-68
2023/06/06 07:03:27;;;;;;;6.40;5.90;;;33.20;1.00;;;;;;5017053;28;20450;-68
2023/06/06 07:05:54;;;;;;;6.57;6.07;;;33.50;1.00;;;;;;5018281;28;20505;-68
2023/06/06 07:08:20;;;;;;;6.13;5.63;;;33.70;1.00;;;;;;5017558;28;20425;-71
2023/06/06 07:10:46;;;;;;;6.23;5.53;;;33.90;1.00;;;;;;5018002;28;20781;-69
2023/06/06 07:13:15;;;;;;;5.60;5.10;;;34.50;1.00;;;;;;5016693;28;20447;-68
2023/06/06 07:15:40;;;;;;;5.90;5.43;;;34.00;1.00;;;;;;5016408;28;20176;-69
2023/06/06 07:18:06;;;;;;;6.10;5.50;;;32.90;1.00;;;;;;5015934;28;20465;-68
2023/06/06 07:20:32;;;;;;;5.07;4.67;;;33.50;1.00;;;;;;5015673;28;20206;-69
2023/06/06 07:22:57;;;;;;;6.63;5.90;;;33.40;1.00;;;;;;5016826;28;20825;-69
2023/06/06 07:25:23;;;;;;;5.77;5.37;;;33.70;1.00;;;;;;5015241;28;20180;-68
2023/06/06 07:27:49;;;;;;;6.57;5.87;;;34.00;1.00;;;;;;5014634;28;20229;-69
2023/06/06 07:30:14;;;;;;;5.50;5.10;;;33.70;1.00;;;;;;5016024;28;20819;-69
2023/06/06 07:32:42;;;;;;;6.30;5.80;;;34.30;1.00;;;;;;5016326;28;20289;-66
2023/06/06 07:35:12;;;;;;;9.00;6.10;;;34.40;1.00;;;;;;5016545;28;20165;-69
2023/06/06 07:37:39;;;;;;;6.37;5.77;;;34.00;1.00;;;;;;5015740;28;20418;-69
2023/06/06 07:40:05;;;;;;;6.67;6.17;;;34.10;1.00;;;;;;5015906;28;20469;-70
2023/06/06 07:42:32;;;;;;;5.80;5.40;;;34.20;1.00;;;;;;5003332;28;20455;-69
2023/06/06 07:44:58;;;;;;;6.17;5.67;;;33.10;1.00;;;;;;4995240;28;20504;-71
2023/06/06 07:47:24;;;;;;;8.80;5.00;;;33.10;1.00;;;;;;4995210;28;20419;-73
2023/06/06 07:49:52;;;;;;;5.90;5.40;;;33.60;1.00;;;;;;4994508;28;20493;-68
2023/06/06 07:52:18;;;;;;;4.90;4.60;;;33.90;1.00;;;;;;5008583;28;20206;-69
2023/06/06 07:54:43;;;;;;;5.03;4.73;;;34.60;1.00;;;;;;5013799;28;20509;-69
2023/06/06 07:57:10;;;;;;;5.13;4.83;;;35.40;1.00;;;;;;5013482;28;20195;-69
2023/06/06 07:59:36;;;;;;;7.43;6.80;;;35.50;1.00;;;;;;5009127;28;20577;-68
2023/06/06 08:02:02;;;;;;;5.50;5.10;;;34.00;1.00;;;;;;5013541;28;20453;-68
2023/06/06 08:04:28;;;;;;;6.70;6.20;;;33.60;1.00;;;;;;5013738;28;20180;-67
2023/06/06 08:06:56;;;;;;;4.63;4.33;;;33.50;1.00;;;;;;5013615;28;20443;-67
2023/06/06 08:09:22;;;;;;;4.73;4.43;;;33.10;1.00;;;;;;5013949;28;20574;-67
2023/06/06 08:11:48;;;;;;;5.20;4.80;;;32.40;1.00;;;;;;5012284;28;20434;-69
2023/06/06 08:14:13;;;;;;;8.83;6.17;;;32.80;1.00;;;;;;5014758;28;20176;-67
2023/06/06 08:16:39;;;;;;;8.80;5.43;;;33.50;1.00;;;;;;5014209;28;20523;-70
2023/06/06 08:19:05;;;;;;;6.13;5.50;;;33.50;1.00;;;;;;5014823;28;20242;-68
2023/06/06 08:21:30;;;;;;;5.10;4.47;;;35.10;1.00;;;;;;5013843;28;20258;-68
2023/06/06 08:23:57;;;;;;;6.20;5.50;;;36.00;1.00;;;;;;5007606;28;20636;-67
2023/06/06 08:26:25;;;;;;;5.30;4.80;;;35.70;1.00;;;;;;5009887;28;20172;-69
2023/06/06 08:28:51;;;;;;;4.90;4.60;;;35.30;1.00;;;;;;5010095;28;20501;-69
2023/06/06 08:31:17;;;;;;;6.03;5.37;;;36.10;1.00;;;;;;5008529;28;20506;-68
2023/06/06 08:33:43;;;;;;;7.07;6.47;;;36.30;1.00;;;;;;5009481;28;20545;-68
2023/06/06 08:36:08;;;;;;;6.13;5.53;;;36.70;1.00;;;;;;5009908;28;20391;-69
2023/06/06 08:38:34;;;;;;;5.37;4.97;;;37.50;1.00;;;;;;4997559;28;20203;-68
2023/06/06 08:41:01;;;;;;;5.57;5.00;;;36.80;1.00;;;;;;5011004;28;20187;-68
2023/06/06 08:43:27;;;;;;;6.43;5.83;;;37.90;1.00;;;;;;5013576;28;20253;-68
2023/06/06 08:45:56;;;;;;;6.20;5.70;;;37.00;1.00;;;;;;5011550;28;20426;-69
2023/06/06 08:48:28;;;;;;;6.33;5.83;;;35.20;1.00;;;;;;5013653;28;20187;-69
2023/06/06 08:50:56;;;;;;;5.50;5.00;;;35.50;1.00;;;;;;5013920;28;20498;-68
2023/06/06 08:53:23;;;;;;;5.57;4.97;;;34.50;1.00;;;;;;5012257;28;20446;-68
2023/06/06 08:55:49;;;;;;;6.00;5.60;;;33.80;1.00;;;;;;5013349;28;20721;-68
2023/06/06 08:58:16;;;;;;;5.83;5.33;;;34.10;1.00;;;;;;5012396;28;20477;-68
2023/06/06 09:00:42;;;;;;;5.90;5.30;;;33.30;1.00;;;;;;5012350;28;20438;-68
2023/06/06 09:03:08;;;;;;;5.47;5.17;;;33.40;1.00;;;;;;5010620;28;20450;-68
2023/06/06 09:05:38;;;;;;;5.73;5.07;;;34.60;1.00;;;;;;5012848;28;20176;-69
2023/06/06 09:08:04;;;;;;;5.57;5.17;;;34.90;1.00;;;;;;5012732;28;20434;-68
2023/06/06 09:10:29;;;;;;;6.20;5.60;;;34.60;1.00;;;;;;5001343;28;20442;-68
2023/06/06 09:12:55;;;;;;;6.07;5.67;;;33.60;1.00;;;;;;5006752;28;20454;-68
2023/06/06 09:15:21;;;;;;;5.27;4.87;;;33.20;1.00;;;;;;5010948;28;20604;-68
2023/06/06 09:17:52;;;;;;;5.63;5.13;;;31.40;1.00;;;;;;5001668;28;20193;-68
2023/06/06 09:20:18;;;;;;;5.47;4.93;;;29.10;1.00;;;;;;5008686;28;20175;-68
2023/06/06 09:22:46;;;;;;;5.97;5.37;;;27.00;1.00;;;;;;5013199;28;20434;-69
2023/06/06 09:25:20;;;;;;;6.70;6.10;;;26.00;1.00;;;;;;5013701;28;20180;-68
2023/06/06 09:27:46;;;;;;;6.10;5.50;;;25.40;1.00;;;;;;5012650;28;20537;-68
2023/06/06 09:30:23;;;;;;;5.80;5.40;;;24.90;1.00;;;;;;5012265;28;20749;-68
2023/06/06 09:33:01;;;;;;;4.90;4.60;;;24.90;1.00;;;;;;5007821;28;20466;-69
2023/06/06 09:35:37;;;;;;;5.47;5.07;;;25.00;1.00;;;;;;4993350;28;20502;-69
2023/06/06 09:38:15;;;;;;;5.87;5.03;;;24.70;1.00;;;;;;4998300;28;20516;-68
2023/06/06 09:40:53;;;;;;;8.23;7.43;;;24.40;1.00;;;;;;5007739;28;20455;-68
2023/06/06 09:43:26;;;;;;;5.70;5.20;;;24.30;1.00;;;;;;4994624;28;20837;-68
2023/06/06 09:45:54;;;;;;;5.00;4.60;;;24.10;1.00;;;;;;5002636;28;20587;-69
2023/06/06 09:48:21;;;;;;;7.27;5.77;;;24.10;1.00;;;;;;5007127;28;20431;-68
2023/06/06 09:50:46;;;;;;;6.03;5.53;;;24.20;1.00;;;;;;5012097;28;20796;-68
2023/06/06 09:53:12;;;;;;;6.33;5.73;;;24.30;1.00;;;;;;5012249;28;20435;-68
2023/06/06 09:55:39;;;;;;;5.60;4.73;;;24.10;1.00;;;;;;5011203;28;20199;-68
2023/06/06 09:58:07;;;;;;;5.60;5.10;;;24.20;1.00;;;;;;5012074;28;20457;-68
2023/06/06 10:00:37;;;;;;;5.23;4.87;;;24.10;1.00;;;;;;4994467;28;20431;-67
2023/06/06 10:03:04;;;;;;;6.40;5.80;;;24.10;1.00;;;;;;4990090;28;20546;-68
2023/06/06 10:05:31;;;;;;;5.00;4.60;;;23.90;1.00;;;;;;5000963;28;20536;-67
2023/06/06 10:07:57;;;;;;;5.43;4.93;;;23.80;1.00;;;;;;5011608;28;20458;-68
2023/06/06 10:10:24;;;;;;;6.53;5.80;;;23.70;1.00;;;;;;5014002;28;20734;-67
2023/06/06 10:12:53;;;;;;;5.90;5.50;;;23.70;1.00;;;;;;5011812;28;20493;-67
2023/06/06 10:15:20;;;;;;;5.77;5.27;;;23.70;1.00;;;;;;5015201;28;20530;-66
2023/06/06 10:17:46;;;;;;;5.67;5.20;;;23.90;1.00;;;;;;5016488;28;20891;-68
2023/06/06 10:20:12;;;;;;;5.87;5.47;;;23.90;1.00;;;;;;5014155;28;20505;-69
2023/06/06 10:22:41;;;;;;;5.50;5.00;;;23.90;1.00;;;;;;5016009;28;20262;-68
2023/06/06 10:25:12;;;;;;;5.93;5.40;;;23.90;1.00;;;;;;5014181;28;20422;-69
2023/06/06 10:27:50;;;;;;;6.13;5.70;;;24.00;1.00;;;;;;5016031;28;20510;-67
2023/06/06 10:30:28;;;;;;;6.17;5.67;;;24.10;1.00;;;;;;5014192;28;20430;-70
2023/06/06 10:33:26;;;;;;;6.77;6.10;;;24.10;1.00;;;;;;5015824;28;20461;-68
2023/06/06 10:35:57;;;;;;;6.80;6.30;;;24.10;1.00;;;;;;5016231;28;20465;-67
2023/06/06 10:38:23;;;;;;;5.90;5.40;;;23.90;1.00;;;;;;5015435;28;20592;-69
2023/06/06 10:40:58;;;;;;;7.20;6.57;;;23.90;1.00;;;;;;5015325;28;20467;-67
2023/06/06 10:43:32;;;;;;;5.70;5.30;;;23.80;1.00;;;;;;5014256;28;20218;-68
2023/06/06 10:45:59;;;;;;;5.73;5.33;;;23.90;1.00;;;;;;5014816;28;20414;-68
2023/06/06 10:48:45;;;;;;;6.00;5.50;;;24.20;1.00;;;;;;5015046;28;20901;-68
2023/06/06 10:51:34;;;;;;;6.90;6.30;;;24.20;1.00;;;;;;5015009;28;20498;-67
2023/06/06 10:54:14;;;;;;;6.97;5.60;;;24.10;1.00;;;;;;5001861;28;20450;-67
2023/06/06 10:57:14;;;;;;;6.60;6.00;;;24.10;1.00;;;;;;5014699;28;20415;-68
2023/06/06 10:59:40;;;;;;;6.23;5.53;;;24.20;1.00;;;;;;5014254;28;21034;-69
2023/06/06 11:02:11;;;;;;;4.80;4.40;;;24.40;1.00;;;;;;5013251;28;20517;-68
2023/06/06 11:04:39;;;;;;;4.93;4.53;;;24.60;1.00;;;;;;5014421;28;20999;-68
2023/06/06 11:07:15;;;;;;;9.10;6.20;;;24.50;1.00;;;;;;5013114;28;20427;-68
2023/06/06 11:09:42;;;;;;;5.37;4.97;;;24.40;1.00;;;;;;5014487;28;20422;-69
2023/06/06 11:12:13;;;;;;;24.43;8.40;;;24.40;1.00;;;;;;5014758;28;20455;-68
2023/06/06 11:15:05;;;;;;;6.60;6.03;;;24.60;1.00;;;;;;5014407;28;20419;-68
2023/06/06 11:17:49;;;;;;;5.87;5.37;;;24.80;1.00;;;;;;5014338;28;20422;-68
2023/06/06 11:20:19;;;;;;;6.30;5.80;;;24.80;1.00;;;;;;5014702;28;20419;-68
2023/06/06 11:23:03;;;;;;;5.77;5.37;;;24.90;1.00;;;;;;5014169;28;20474;-69
2023/06/06 11:25:30;;;;;;;6.80;6.10;;;24.90;1.00;;;;;;5014310;28;20650;-69
2023/06/06 11:27:56;;;;;;;11.93;7.20;;;24.90;1.00;;;;;;5010885;28;20943;-67
2023/06/06 11:30:24;;;;;;;12.40;6.67;;;24.40;1.00;;;;;;4997066;28;20509;-68
2023/06/06 11:32:51;;;;;;;5.40;5.00;;;24.50;1.00;;;;;;5011340;28;20466;-67
2023/06/06 11:35:17;;;;;;;5.80;5.27;;;24.70;1.00;;;;;;5008322;28;20431;-70
2023/06/06 11:37:43;;;;;;;10.97;5.30;;;24.80;1.00;;;;;;5012083;28;20542;-70
2023/06/06 11:40:10;;;;;;;6.23;5.37;;;24.90;1.00;;;;;;5013757;28;20514;-71
2023/06/06 11:42:35;;;;;;;12.13;6.60;;;25.10;1.00;;;;;;5000492;28;20939;-70
2023/06/06 11:45:04;;;;;;;5.40;5.00;;;25.30;1.00;;;;;;4995844;28;20451;-69
2023/06/06 11:47:33;;;;;;;7.93;5.87;;;25.30;1.00;;;;;;4997066;28;20554;-70
2023/06/06 11:49:59;;;;;;;7.87;5.53;;;25.50;1.00;;;;;;4997026;28;20823;-69
2023/06/06 11:52:24;;;;;;;6.20;5.80;;;25.70;1.00;;;;;;5014383;28;20450;-70
2023/06/06 11:55:04;;;;;;;6.37;5.87;;;26.00;1.00;;;;;;5016098;28;20605;-70
2023/06/06 11:57:33;;;;;;;7.13;5.47;;;26.00;1.00;;;;;;5014773;28;20214;-69
2023/06/06 12:00:06;;;;;;;5.60;5.17;;;25.80;1.00;;;;;;5013796;28;20458;-69
2023/06/06 12:02:32;;;;;;;6.13;5.63;;;25.50;1.00;;;;;;5014735;28;20955;-69
2023/06/06 12:04:58;;;;;;;4.97;4.67;;;25.00;1.00;;;;;;5015386;28;20411;-69
2023/06/06 12:07:23;;;;;;;6.20;5.70;;;25.10;1.00;;;;;;5014185;28;20234;-69
2023/06/06 12:09:58;;;;;;;13.47;8.33;;;25.60;1.00;;;;;;5013944;28;20645;-69
2023/06/06 12:12:23;;;;;;;6.70;6.00;;;26.10;1.00;;;;;;5014292;28;20203;-70
2023/06/06 12:14:57;;;;;;;8.10;5.67;;;25.90;1.00;;;;;;5014217;28;20492;-70
2023/06/06 12:17:25;;;;;;;5.50;5.00;;;25.80;1.00;;;;;;5013272;28;20661;-69
2023/06/06 12:19:55;;;;;;;5.87;5.40;;;25.80;1.00;;;;;;5014142;28;20455;-70
2023/06/06 12:22:28;;;;;;;5.80;5.30;;;25.90;1.00;;;;;;5012749;28;20454;-69
2023/06/06 12:24:54;;;;;;;6.00;5.50;;;26.10;1.00;;;;;;5012241;28;20932;-69
2023/06/06 12:27:27;;;;;;;6.23;5.73;;;26.20;1.00;;;;;;5014227;28;20422;-68
2023/06/06 12:29:57;;;;;;;8.83;7.07;;;26.30;1.00;;;;;;5013644;28;20199;-69
2023/06/06 12:32:26;;;;;;;6.30;5.83;;;26.20;1.00;;;;;;5013454;28;20493;-69
2023/06/06 12:35:02;;;;;;;5.47;5.07;;;26.10;1.00;;;;;;5013582;28;20434;-69
2023/06/06 12:37:40;;;;;;;6.47;5.80;;;25.80;1.00;;;;;;5013623;28;20419;-69
2023/06/06 12:40:26;;;;;;;10.03;6.00;;;25.90;1.00;;;;;;5013303;28;20511;-69
2023/06/06 12:42:52;;;;;;;5.60;5.13;;;26.00;1.00;;;;;;5012750;28;20504;-68
2023/06/06 12:45:19;;;;;;;7.60;6.13;;;25.90;1.00;;;;;;5013593;28;20484;-69
2023/06/06 12:47:46;;;;;;;6.20;5.80;;;25.90;1.00;;;;;;5011772;28;20430;-69
2023/06/06 12:50:12;;;;;;;13.57;5.57;;;26.20;1.00;;;;;;5013346;28;20418;-69
2023/06/06 12:52:38;;;;;;;5.10;4.80;;;26.50;1.00;;;;;;5012952;28;20442;-69
2023/06/06 12:55:04;;;;;;;6.10;5.53;;;26.80;1.00;;;;;;5012973;28;20516;-69
2023/06/06 12:57:30;;;;;;;6.10;5.70;;;26.60;1.00;;;;;;5013455;28;20415;-70